createdAt,value
2018-12-31T00:00:09.573Z,2.50
2018-12-31T00:02:39.465Z,2.50
2018-12-31T00:05:08.549Z,2.50
2018-12-31T00:07:37.662Z,2.50
2018-12-31T00:10:06.755Z,2.50
2018-12-31T00:12:35.869Z,2.50
2018-12-31T00:15:05.230Z,2.50
2018-12-31T00:17:34.344Z,2.50
2018-12-31T00:20:03.910Z,2.40
2018-12-31T00:22:33.023Z,2.50
2018-12-31T00:25:02.121Z,2.50
2018-12-31T00:27:31.237Z,2.40
2018-12-31T00:30:00.329Z,2.50
2018-12-31T00:32:29.451Z,2.50
2018-12-31T00:34:58.547Z,2.50
2018-12-31T00:37:27.667Z,2.50
2018-12-31T00:39:56.757Z,2.60
2018-12-31T00:42:25.883Z,2.60
2018-12-31T00:44:54.975Z,2.60
2018-12-31T00:47:24.091Z,2.70
2018-12-31T00:49:53.181Z,2.70
2018-12-31T00:52:22.294Z,2.70
2018-12-31T00:54:51.392Z,2.80
2018-12-31T00:57:20.514Z,2.90
2018-12-31T00:59:49.607Z,3.00
2018-12-31T01:02:18.698Z,3.00
2018-12-31T01:04:47.894Z,3.10
2018-12-31T01:07:16.986Z,3.10
2018-12-31T01:09:46.101Z,3.10
2018-12-31T01:12:15.193Z,3.10
2018-12-31T01:14:44.307Z,3.10
2018-12-31T01:17:13.397Z,3.10
2018-12-31T01:19:42.518Z,3.20
2018-12-31T01:22:11.610Z,3.20
2018-12-31T01:24:40.730Z,3.20
2018-12-31T01:27:09.821Z,3.20
2018-12-31T01:29:38.937Z,3.30
2018-12-31T01:32:08.030Z,3.30
2018-12-31T01:34:37.147Z,3.30
2018-12-31T01:37:06.245Z,3.30
2018-12-31T01:39:35.359Z,3.30
2018-12-31T01:42:04.454Z,3.40
2018-12-31T01:44:33.567Z,3.30
2018-12-31T01:47:02.665Z,3.30
2018-12-31T01:49:31.777Z,3.40
2018-12-31T01:52:00.879Z,3.40
2018-12-31T01:54:30.372Z,3.40
2018-12-31T01:56:59.477Z,3.50
2018-12-31T01:59:28.595Z,3.50
2018-12-31T02:01:57.687Z,3.60
2018-12-31T02:04:26.797Z,3.60
2018-12-31T02:06:55.994Z,3.70
2018-12-31T02:09:25.113Z,3.70
2018-12-31T02:11:54.217Z,3.80
2018-12-31T02:14:23.348Z,3.80
2018-12-31T02:16:52.442Z,3.90
2018-12-31T02:19:21.569Z,3.80
2018-12-31T02:21:50.669Z,3.80
2018-12-31T02:24:19.790Z,3.80
2018-12-31T02:26:48.889Z,3.90
2018-12-31T02:29:18.018Z,3.80
2018-12-31T02:31:47.119Z,3.90
2018-12-31T02:34:16.245Z,3.90
2018-12-31T02:36:45.348Z,3.90
2018-12-31T02:39:14.483Z,3.90
2018-12-31T02:41:43.565Z,3.90
2018-12-31T02:44:12.692Z,3.90
2018-12-31T02:46:41.788Z,4.00
2018-12-31T02:49:10.911Z,3.90
2018-12-31T02:51:40.014Z,3.90
2018-12-31T02:54:09.140Z,3.90
2018-12-31T02:56:38.237Z,3.90
2018-12-31T02:59:07.355Z,3.90
2018-12-31T03:01:36.456Z,3.90
2018-12-31T03:04:05.580Z,4.00
2018-12-31T03:06:34.666Z,4.00
2018-12-31T03:09:05.362Z,4.00
2018-12-31T03:11:34.467Z,4.00
2018-12-31T03:14:03.589Z,4.00
2018-12-31T03:16:32.750Z,4.00
2018-12-31T03:19:01.886Z,4.00
2018-12-31T03:21:30.992Z,4.00
2018-12-31T03:24:00.115Z,4.00
2018-12-31T03:26:29.214Z,4.00
2018-12-31T03:28:58.312Z,4.00
2018-12-31T03:31:27.431Z,4.00
2018-12-31T03:33:56.535Z,4.00
2018-12-31T03:36:25.650Z,4.00
2018-12-31T03:38:54.769Z,4.00
2018-12-31T03:41:23.887Z,4.10
2018-12-31T03:43:52.986Z,4.10
2018-12-31T03:46:22.117Z,4.20
2018-12-31T03:48:51.223Z,4.10
2018-12-31T03:51:20.327Z,4.00
2018-12-31T03:53:49.431Z,4.10
2018-12-31T03:56:18.571Z,4.10
2018-12-31T03:58:47.674Z,4.10
2018-12-31T04:01:16.803Z,4.10
2018-12-31T04:03:45.894Z,4.10
2018-12-31T04:06:15.023Z,4.10
2018-12-31T04:08:44.124Z,4.20
2018-12-31T04:11:13.250Z,4.20
2018-12-31T04:13:42.465Z,4.10
2018-12-31T04:16:11.553Z,4.10
2018-12-31T04:18:40.653Z,4.10
2018-12-31T04:21:09.772Z,4.20
2018-12-31T04:23:38.878Z,4.20
2018-12-31T04:26:08.003Z,4.20
2018-12-31T04:28:37.102Z,4.30
2018-12-31T04:31:06.219Z,4.30
2018-12-31T04:33:35.314Z,4.20
2018-12-31T04:36:04.437Z,4.20
2018-12-31T04:38:33.529Z,4.20
2018-12-31T04:41:02.657Z,4.20
2018-12-31T04:43:31.750Z,4.20
2018-12-31T04:46:00.875Z,4.20
2018-12-31T04:48:29.988Z,4.30
2018-12-31T04:50:59.115Z,4.30
2018-12-31T04:53:28.219Z,4.20
2018-12-31T04:55:57.335Z,4.20
2018-12-31T04:58:26.450Z,4.20
2018-12-31T05:00:55.593Z,4.30
2018-12-31T05:03:24.686Z,4.30
2018-12-31T05:05:53.810Z,4.30
2018-12-31T05:08:22.909Z,4.20
2018-12-31T05:10:52.021Z,4.30
2018-12-31T05:13:21.133Z,4.30
2018-12-31T05:15:50.262Z,4.20
2018-12-31T05:18:19.377Z,4.30
2018-12-31T05:20:48.485Z,4.30
2018-12-31T05:23:17.589Z,4.30
2018-12-31T05:25:46.715Z,4.30
2018-12-31T05:28:15.818Z,4.30
2018-12-31T05:30:53.600Z,4.30
2018-12-31T05:33:22.709Z,4.40
2018-12-31T05:35:51.838Z,4.40
2018-12-31T05:38:20.955Z,4.40
2018-12-31T05:40:50.083Z,4.40
2018-12-31T05:43:38.601Z,4.40
2018-12-31T05:46:07.730Z,4.40
2018-12-31T05:48:36.837Z,4.50
2018-12-31T05:51:05.966Z,4.50
2018-12-31T05:53:35.087Z,4.50
2018-12-31T05:56:04.376Z,4.50
2018-12-31T05:58:33.472Z,4.50
2018-12-31T06:01:02.598Z,4.50
2018-12-31T06:03:31.698Z,4.50
2018-12-31T06:06:00.814Z,4.60
2018-12-31T06:08:29.920Z,4.50
2018-12-31T06:10:59.046Z,4.50
2018-12-31T06:13:28.154Z,4.50
2018-12-31T06:15:57.407Z,4.60
2018-12-31T06:18:26.504Z,4.50
2018-12-31T06:20:55.605Z,4.70
2018-12-31T06:23:24.730Z,4.60
2018-12-31T06:25:53.834Z,4.60
2018-12-31T06:28:22.962Z,4.60
2018-12-31T06:30:52.121Z,4.70
2018-12-31T06:33:21.239Z,4.60
2018-12-31T06:35:50.342Z,4.60
2018-12-31T06:38:19.469Z,4.70
2018-12-31T06:40:48.577Z,4.60
2018-12-31T06:43:17.701Z,4.70
2018-12-31T06:45:46.801Z,4.70
2018-12-31T06:48:15.928Z,4.60
2018-12-31T06:50:45.034Z,4.60
2018-12-31T06:53:14.156Z,4.60
2018-12-31T06:55:43.258Z,4.70
2018-12-31T06:58:12.383Z,4.60
2018-12-31T07:00:41.478Z,4.60
2018-12-31T07:03:10.596Z,4.70
2018-12-31T07:05:39.690Z,4.70
2018-12-31T07:08:08.824Z,4.70
2018-12-31T07:10:37.924Z,4.70
2018-12-31T07:13:07.048Z,4.80
2018-12-31T07:15:36.156Z,4.80
2018-12-31T07:18:05.270Z,4.80
2018-12-31T07:20:34.370Z,4.80
2018-12-31T07:23:03.492Z,4.80
2018-12-31T07:25:32.597Z,4.70
2018-12-31T07:28:01.715Z,4.80
2018-12-31T07:30:30.818Z,4.90
2018-12-31T07:32:59.943Z,4.90
2018-12-31T07:35:29.045Z,4.90
2018-12-31T07:37:58.163Z,4.90
2018-12-31T07:40:27.267Z,4.90
2018-12-31T07:42:56.390Z,5.00
2018-12-31T07:45:25.494Z,5.00
2018-12-31T07:47:54.619Z,5.00
2018-12-31T07:50:23.730Z,5.00
2018-12-31T07:52:52.850Z,5.10
2018-12-31T07:55:21.953Z,5.10
2018-12-31T07:57:51.082Z,5.10
2018-12-31T08:00:20.180Z,5.10
2018-12-31T08:02:49.306Z,5.20
2018-12-31T08:05:18.403Z,5.20
2018-12-31T08:07:47.522Z,5.20
2018-12-31T08:10:16.637Z,5.20
2018-12-31T08:12:45.761Z,5.20
2018-12-31T08:15:14.865Z,5.30
2018-12-31T08:17:43.998Z,5.30
2018-12-31T08:20:13.095Z,5.30
2018-12-31T08:22:42.224Z,5.30
2018-12-31T08:25:11.328Z,5.40
2018-12-31T08:27:40.459Z,5.40
2018-12-31T08:30:09.563Z,5.40
2018-12-31T08:32:38.803Z,5.30
2018-12-31T08:35:07.886Z,5.30
2018-12-31T08:37:37.011Z,5.40
2018-12-31T08:40:06.272Z,5.40
2018-12-31T08:42:35.501Z,5.40
2018-12-31T08:45:05.812Z,5.40
2018-12-31T08:47:34.990Z,5.50
2018-12-31T08:50:04.709Z,5.60
2018-12-31T08:52:33.837Z,5.60
2018-12-31T08:55:02.944Z,5.60
2018-12-31T08:57:32.140Z,5.70
2018-12-31T09:00:01.506Z,5.80
2018-12-31T09:02:31.233Z,5.90
2018-12-31T09:05:00.325Z,6.00
2018-12-31T09:07:29.509Z,6.00
2018-12-31T09:09:58.625Z,5.90
2018-12-31T09:12:27.731Z,6.10
2018-12-31T09:14:56.857Z,6.20
2018-12-31T09:17:25.957Z,6.20
2018-12-31T09:19:55.146Z,6.30
2018-12-31T09:22:24.423Z,6.30
2018-12-31T09:24:53.544Z,6.20
2018-12-31T09:27:22.743Z,6.20
2018-12-31T09:29:51.867Z,6.20
2018-12-31T09:32:20.978Z,6.40
2018-12-31T09:34:50.416Z,6.40
2018-12-31T09:37:19.599Z,6.30
2018-12-31T09:39:48.694Z,6.40
2018-12-31T09:42:17.881Z,6.40
2018-12-31T09:44:46.998Z,6.40
2018-12-31T09:47:16.090Z,6.40
2018-12-31T09:49:45.307Z,6.50
2018-12-31T09:52:14.387Z,6.40
2018-12-31T09:54:43.516Z,6.40
2018-12-31T09:57:12.629Z,6.40
2018-12-31T09:59:41.752Z,6.50
2018-12-31T10:02:10.852Z,6.80
2018-12-31T10:04:39.970Z,6.90
2018-12-31T10:07:09.072Z,6.90
2018-12-31T10:09:38.189Z,7.00
2018-12-31T10:12:07.313Z,7.00
2018-12-31T10:14:36.434Z,7.10
2018-12-31T10:17:05.606Z,7.20
2018-12-31T10:19:34.726Z,7.10
2018-12-31T10:22:03.860Z,7.40
2018-12-31T10:24:35.733Z,7.40
2018-12-31T10:27:04.844Z,7.40
2018-12-31T10:29:36.203Z,7.50
2018-12-31T10:32:06.342Z,7.80
2018-12-31T10:34:35.474Z,7.80
2018-12-31T10:37:04.614Z,7.80
2018-12-31T10:39:33.741Z,7.90
2018-12-31T10:42:02.837Z,7.90
2018-12-31T10:44:31.962Z,7.90
2018-12-31T10:47:01.063Z,7.80
2018-12-31T10:49:30.197Z,7.90
2018-12-31T10:51:59.289Z,8.10
2018-12-31T10:54:28.401Z,8.10
2018-12-31T10:56:57.501Z,7.90
2018-12-31T10:59:26.628Z,7.80
2018-12-31T11:01:55.720Z,7.80
2018-12-31T11:04:24.860Z,8.00
2018-12-31T11:06:53.948Z,8.20
2018-12-31T11:09:23.070Z,8.40
2018-12-31T11:11:52.169Z,8.50
2018-12-31T11:14:21.295Z,8.40
2018-12-31T11:16:50.396Z,8.30
2018-12-31T11:19:19.520Z,8.20
2018-12-31T11:21:48.748Z,8.30
2018-12-31T11:24:17.829Z,8.30
2018-12-31T11:26:46.963Z,8.50
2018-12-31T11:29:16.048Z,8.60
2018-12-31T11:31:46.311Z,8.70
2018-12-31T11:34:15.431Z,8.60
2018-12-31T11:36:44.549Z,8.20
2018-12-31T11:39:13.644Z,8.40
2018-12-31T11:41:42.764Z,8.50
2018-12-31T11:44:11.857Z,8.40
2018-12-31T11:46:40.982Z,8.20
2018-12-31T11:49:10.077Z,8.10
2018-12-31T11:51:39.196Z,8.20
2018-12-31T11:54:08.295Z,8.30
2018-12-31T11:56:37.417Z,8.40
2018-12-31T11:59:06.505Z,8.50
2018-12-31T12:01:35.632Z,8.60
2018-12-31T12:04:04.733Z,8.70
2018-12-31T12:06:33.862Z,9.00
2018-12-31T12:09:03.931Z,8.90
2018-12-31T12:11:33.065Z,9.10
2018-12-31T12:14:02.165Z,9.30
2018-12-31T12:16:31.298Z,9.30
2018-12-31T12:19:00.401Z,9.20
2018-12-31T12:21:29.541Z,9.30
2018-12-31T12:23:58.645Z,9.20
2018-12-31T12:26:27.768Z,9.00
2018-12-31T12:28:56.860Z,9.00
2018-12-31T12:31:25.989Z,8.80
2018-12-31T12:33:55.088Z,9.00
2018-12-31T12:36:24.214Z,9.00
2018-12-31T12:38:53.308Z,9.10
2018-12-31T12:41:22.429Z,9.20
2018-12-31T12:43:51.635Z,9.10
2018-12-31T12:46:20.771Z,9.30
2018-12-31T12:48:49.955Z,9.30
2018-12-31T12:51:38.518Z,9.30
2018-12-31T12:54:07.797Z,9.20
2018-12-31T12:56:36.934Z,9.10
2018-12-31T12:59:06.198Z,9.10
2018-12-31T13:01:35.329Z,9.10
2018-12-31T13:04:04.499Z,8.90
2018-12-31T13:06:33.798Z,9.00
2018-12-31T13:09:04.367Z,9.20
2018-12-31T13:11:33.486Z,9.20
2018-12-31T13:14:02.580Z,9.20
2018-12-31T13:16:31.710Z,9.20
2018-12-31T13:19:00.797Z,9.20
2018-12-31T13:21:29.921Z,9.10
2018-12-31T13:23:59.024Z,8.80
2018-12-31T13:26:28.153Z,8.50
2018-12-31T13:28:57.377Z,8.50
2018-12-31T13:31:26.517Z,8.50
2018-12-31T13:33:55.652Z,8.40
2018-12-31T13:36:25.255Z,8.40
2018-12-31T13:38:54.361Z,8.50
2018-12-31T13:41:23.500Z,8.40
2018-12-31T13:43:52.595Z,8.40
2018-12-31T13:46:21.736Z,8.30
2018-12-31T13:48:50.837Z,8.20
2018-12-31T13:51:21.596Z,8.20
2018-12-31T13:53:50.847Z,8.00
2018-12-31T13:56:20.002Z,8.00
2018-12-31T13:58:49.126Z,7.80
2018-12-31T14:01:18.261Z,7.80
2018-12-31T14:03:47.363Z,7.70
2018-12-31T14:06:16.965Z,7.60
2018-12-31T14:08:46.056Z,7.60
2018-12-31T14:11:15.258Z,7.50
2018-12-31T14:13:44.338Z,7.40
2018-12-31T14:16:13.489Z,7.40
2018-12-31T14:18:42.904Z,7.40
2018-12-31T14:21:12.062Z,7.30
2018-12-31T14:23:41.182Z,7.40
2018-12-31T14:26:10.365Z,7.40
2018-12-31T14:28:39.500Z,7.30
2018-12-31T14:31:08.765Z,7.20
2018-12-31T14:33:37.886Z,7.30
2018-12-31T14:36:07.392Z,7.20
2018-12-31T14:38:36.520Z,7.10
2018-12-31T14:41:05.625Z,7.10
2018-12-31T14:43:34.759Z,7.10
2018-12-31T14:46:03.877Z,7.10
2018-12-31T14:48:33.009Z,7.00
2018-12-31T14:51:02.108Z,6.90
2018-12-31T14:53:31.247Z,7.00
2018-12-31T14:56:00.403Z,6.90
2018-12-31T14:58:29.514Z,6.90
2018-12-31T15:00:58.618Z,6.90
2018-12-31T15:03:27.754Z,6.80
2018-12-31T15:05:56.862Z,6.90
2018-12-31T15:08:26.002Z,6.80
2018-12-31T15:10:55.227Z,6.80
2018-12-31T15:13:24.355Z,6.90
2018-12-31T15:15:53.636Z,6.90
2018-12-31T15:18:22.756Z,6.80
2018-12-31T15:20:51.845Z,6.70
2018-12-31T15:23:20.979Z,6.70
2018-12-31T15:25:50.070Z,6.60
2018-12-31T15:28:24.502Z,6.70
2018-12-31T15:30:55.031Z,6.70
2018-12-31T15:33:24.169Z,6.60
2018-12-31T15:35:53.637Z,6.60
2018-12-31T15:38:22.774Z,6.60
2018-12-31T15:40:52.340Z,6.60
2018-12-31T15:43:21.854Z,6.60
2018-12-31T15:45:50.955Z,6.70
2018-12-31T15:48:20.086Z,6.70
2018-12-31T15:50:49.186Z,6.70
2018-12-31T15:53:18.391Z,6.90
2018-12-31T15:56:07.359Z,6.80
2018-12-31T15:58:36.494Z,6.80
2018-12-31T16:01:05.602Z,6.70
2018-12-31T16:03:34.730Z,6.70
2018-12-31T16:06:03.840Z,6.70
2018-12-31T16:08:32.956Z,6.80
2018-12-31T16:11:02.060Z,6.80
2018-12-31T16:13:31.210Z,6.70
2018-12-31T16:16:00.934Z,6.90
2018-12-31T16:18:30.404Z,6.80
2018-12-31T16:20:59.538Z,6.80
2018-12-31T16:23:28.688Z,6.70
2018-12-31T16:25:57.798Z,6.80
2018-12-31T16:28:30.321Z,6.70
2018-12-31T16:31:02.400Z,6.60
2018-12-31T16:33:33.005Z,6.70
2018-12-31T16:36:02.155Z,6.70
2018-12-31T16:38:31.321Z,6.70
2018-12-31T16:41:00.604Z,6.70
2018-12-31T16:43:29.770Z,6.70
2018-12-31T16:45:58.882Z,6.60
2018-12-31T16:48:28.304Z,6.60
2018-12-31T16:50:57.402Z,6.70
2018-12-31T16:53:26.834Z,6.70
2018-12-31T16:55:56.530Z,6.70
2018-12-31T16:58:25.668Z,6.70
2018-12-31T17:00:54.876Z,6.70
2018-12-31T17:03:24.020Z,6.80
2018-12-31T17:05:53.400Z,6.70
2018-12-31T17:08:22.528Z,6.70
2018-12-31T17:10:51.629Z,6.60
2018-12-31T17:13:20.755Z,6.80
2018-12-31T17:15:49.886Z,6.70
2018-12-31T17:18:19.263Z,6.60
2018-12-31T17:20:48.398Z,6.70
2018-12-31T17:23:36.689Z,6.60
2018-12-31T17:26:05.790Z,6.70
2018-12-31T17:28:34.917Z,6.70
2018-12-31T17:31:04.091Z,6.60
2018-12-31T17:33:33.223Z,6.60
2018-12-31T17:36:02.340Z,6.60
2018-12-31T17:38:31.457Z,6.70
2018-12-31T17:41:00.554Z,6.60
2018-12-31T17:43:29.687Z,6.60
2018-12-31T17:45:58.784Z,6.70
2018-12-31T17:48:27.903Z,6.60
2018-12-31T17:50:57.009Z,6.60
2018-12-31T17:53:26.346Z,6.60
2018-12-31T17:55:55.478Z,6.80
2018-12-31T17:58:24.582Z,6.80
2018-12-31T18:00:53.715Z,6.80
2018-12-31T18:03:22.820Z,6.70
2018-12-31T18:05:52.129Z,6.70
2018-12-31T18:08:21.265Z,6.70
2018-12-31T18:10:50.379Z,6.70
2018-12-31T18:13:19.486Z,6.70
2018-12-31T18:15:48.609Z,6.60
2018-12-31T18:18:17.984Z,6.70
2018-12-31T18:20:47.110Z,6.80
2018-12-31T18:23:16.230Z,6.80
2018-12-31T18:25:45.357Z,6.70
2018-12-31T18:28:14.453Z,6.70
2018-12-31T18:30:43.755Z,6.70
2018-12-31T18:33:12.854Z,6.80
2018-12-31T18:35:41.985Z,6.80
2018-12-31T18:38:11.085Z,6.80
2018-12-31T18:40:40.218Z,6.80
2018-12-31T18:43:09.491Z,6.80
2018-12-31T18:45:38.620Z,6.80
2018-12-31T18:48:07.721Z,6.80
2018-12-31T18:50:36.842Z,6.80
2018-12-31T18:53:05.938Z,6.80
2018-12-31T18:55:35.347Z,6.80
2018-12-31T18:58:04.442Z,6.80
2018-12-31T19:00:33.581Z,6.80
2018-12-31T19:03:02.682Z,6.80
2018-12-31T19:05:31.801Z,6.80
2018-12-31T19:08:01.174Z,6.80
2018-12-31T19:10:30.329Z,6.90
2018-12-31T19:12:59.427Z,6.90
2018-12-31T19:15:28.554Z,6.90
2018-12-31T19:17:57.654Z,6.90
2018-12-31T19:20:27.163Z,6.90
2018-12-31T19:22:56.270Z,6.90
2018-12-31T19:25:25.386Z,6.80
2018-12-31T19:27:54.496Z,6.90
2018-12-31T19:30:23.617Z,6.90
2018-12-31T19:32:52.995Z,6.90
2018-12-31T19:35:22.117Z,7.00
2018-12-31T19:37:51.211Z,7.10
2018-12-31T19:40:20.338Z,7.10
2018-12-31T19:42:49.507Z,7.00
2018-12-31T19:45:18.624Z,7.10
2018-12-31T19:47:47.823Z,7.10
2018-12-31T19:50:16.921Z,7.10
2018-12-31T19:52:46.019Z,7.10
2018-12-31T19:55:15.122Z,7.10
2018-12-31T19:57:44.247Z,7.10
2018-12-31T20:00:13.369Z,7.20
2018-12-31T20:02:42.492Z,7.20
2018-12-31T20:05:11.586Z,7.20
2018-12-31T20:07:40.715Z,7.20
2018-12-31T20:10:09.818Z,7.20
2018-12-31T20:12:38.941Z,7.20
2018-12-31T20:15:08.040Z,7.20
2018-12-31T20:17:37.156Z,7.20
2018-12-31T20:20:06.537Z,7.20
2018-12-31T20:22:35.660Z,7.20
2018-12-31T20:25:05.242Z,7.30
2018-12-31T20:27:34.370Z,7.30
2018-12-31T20:30:03.636Z,7.40
2018-12-31T20:32:32.757Z,7.40
2018-12-31T20:35:01.870Z,7.30
2018-12-31T20:37:31.262Z,7.30
2018-12-31T20:40:00.373Z,7.30
2018-12-31T20:42:29.504Z,7.40
2018-12-31T20:44:58.607Z,7.40
2018-12-31T20:47:27.734Z,7.50
2018-12-31T20:49:56.911Z,7.50
2018-12-31T20:52:26.126Z,7.50
2018-12-31T20:54:55.216Z,7.60
2018-12-31T20:57:24.337Z,7.50
2018-12-31T20:59:53.438Z,7.60
2018-12-31T21:02:22.581Z,7.50
2018-12-31T21:04:52.022Z,7.50
2018-12-31T21:07:21.143Z,7.50
2018-12-31T21:09:50.248Z,7.50
2018-12-31T21:12:19.375Z,7.50
2018-12-31T21:14:48.480Z,7.60
2018-12-31T21:17:17.882Z,7.60
2018-12-31T21:19:46.988Z,7.70
2018-12-31T21:22:16.126Z,7.60
2018-12-31T21:24:45.225Z,7.70
2018-12-31T21:27:14.347Z,7.60
2018-12-31T21:29:43.725Z,7.60
2018-12-31T21:32:12.851Z,7.70
2018-12-31T21:34:41.959Z,7.70
2018-12-31T21:37:11.458Z,7.80
2018-12-31T21:39:40.563Z,7.70
2018-12-31T21:42:09.690Z,7.70
2018-12-31T21:44:38.794Z,7.80
2018-12-31T21:47:07.918Z,7.80
2018-12-31T21:49:37.024Z,7.80
2018-12-31T21:52:06.802Z,7.80
2018-12-31T21:54:55.323Z,7.80
2018-12-31T21:57:43.877Z,7.80
2018-12-31T22:00:12.978Z,7.80
2018-12-31T22:02:42.281Z,7.80
2018-12-31T22:05:14.396Z,7.80
2018-12-31T22:07:43.504Z,7.70
2018-12-31T22:10:12.696Z,7.70
2018-12-31T22:12:41.805Z,7.70
2018-12-31T22:15:10.907Z,7.80
2018-12-31T22:17:40.025Z,7.80
2018-12-31T22:20:09.998Z,7.80
2018-12-31T22:22:39.126Z,7.90
2018-12-31T22:25:08.228Z,7.80
2018-12-31T22:27:37.619Z,7.80
2018-12-31T22:30:07.920Z,7.70
2018-12-31T22:32:37.041Z,7.80
2018-12-31T22:35:06.201Z,7.80
2018-12-31T22:37:35.330Z,7.80
2018-12-31T22:40:04.755Z,7.80
2018-12-31T22:42:33.940Z,7.80
2018-12-31T22:45:03.051Z,7.80
2018-12-31T22:47:32.177Z,7.70
2018-12-31T22:50:01.271Z,7.80
2018-12-31T22:52:30.672Z,7.80
2018-12-31T22:54:59.998Z,7.80
2018-12-31T22:57:29.227Z,7.90
2018-12-31T22:59:58.332Z,7.90
2018-12-31T23:02:27.461Z,7.90
2018-12-31T23:04:56.738Z,7.90
2018-12-31T23:07:25.893Z,7.90
2018-12-31T23:09:54.972Z,7.90
2018-12-31T23:12:24.371Z,7.90
2018-12-31T23:14:53.475Z,8.00
2018-12-31T23:17:22.794Z,7.90
2018-12-31T23:19:51.892Z,7.80
2018-12-31T23:22:21.026Z,7.90
2018-12-31T23:24:50.141Z,7.90
2018-12-31T23:27:19.264Z,7.90
2018-12-31T23:29:48.754Z,7.90
2018-12-31T23:32:17.889Z,7.90
2018-12-31T23:34:47.072Z,8.00
2018-12-31T23:37:16.180Z,8.10
2018-12-31T23:39:45.320Z,8.10
2018-12-31T23:42:14.846Z,8.00
2018-12-31T23:44:43.975Z,8.00
2018-12-31T23:47:13.072Z,8.00
2018-12-31T23:49:42.202Z,8.00
2018-12-31T23:52:11.331Z,8.10
2018-12-31T23:54:40.835Z,8.10
2018-12-31T23:57:09.944Z,8.10
2018-12-31T23:59:39.074Z,8.10
